Time;durP1;ratioP1;P1;durP2;ratioP2;P2;SDS_P1;SDS_P2;PMS_P1;PMS_P2;Temp;Humidity;BMP_temperature;BMP_pressure;BME280_temperature;BME280_humidity;BME280_pressure;Samples;Min_cycle;Max_cycle;Signal;HPM_P1;HPM_P2
2023/02/05 00:01:36;;;;;;;14.40;6.00;;;;;;;-2.43;73.21;102312.84;127664;1294;114941;-63
2023/02/05 00:04:47;;;;;;;14.10;5.80;;;;;;;-2.41;73.31;102314.67;127607;1298;128895;-64
2023/02/05 00:08:26;;;;;;;15.80;5.70;;;;;;;-2.39;73.57;102312.46;128474;1295;115345;-62
2023/02/05 00:12:19;;;;;;;16.20;6.20;;;;;;;-2.36;73.27;102317.63;128395;1277;114944;-61
2023/02/05 00:16:05;;;;;;;;;;;;;;;;;;;;;
2023/02/05 00:23:32;;;;;;;;;;;;;;;;;;;;;
2023/02/05 00:27:31;;;;;;;14.00;5.50;;;;;;;-2.21;73.29;102321.66;127879;1280;116353;-62
2023/02/05 00:30:47;;;;;;;14.30;4.80;;;;;;;-2.19;73.44;102320.89;127369;1301;114905;-63
2023/02/05 00:34:21;;;;;;;16.50;5.80;;;;;;;-2.17;73.44;102317.63;127475;1299;115047;-63
2023/02/05 00:37:46;;;;;;;16.10;6.70;;;;;;;-2.18;73.11;102318.66;127203;1305;114939;-63
2023/02/05 00:41:02;;;;;;;12.10;5.40;;;;;;;-2.20;73.70;102318.39;127219;1302;128245;-62
2023/02/05 00:44:25;;;;;;;13.30;5.10;;;;;;;-2.23;73.24;102320.57;127192;1296;115340;-64
2023/02/05 00:48:34;;;;;;;16.70;5.50;;;;;;;-2.26;73.70;102313.45;127308;1296;114856;-63
2023/02/05 00:52:05;;;;;;;12.50;5.40;;;;;;;-2.31;73.31;102315.92;126325;1308;114877;-64
2023/02/05 00:55:09;;;;;;;15.00;6.10;;;;;;;-2.35;73.23;102313.67;126441;1304;115065;-63
2023/02/05 00:58:50;;;;;;;;;;;;;;;;;;;;;
2023/02/05 01:02:44;;;;;;;;;;;;;;;;;;;;;
2023/02/05 01:06:48;;;;;;;16.40;6.30;;;;;;;-2.41;74.11;102313.42;127770;1283;114856;-63
2023/02/05 01:10:20;;;;;;;;;;;;;;;;;;;;;
2023/02/05 01:13:49;;;;;;;15.40;7.20;;;;;;;-2.41;73.85;102328.85;127485;1297;114881;-64
2023/02/05 01:17:45;;;;;;;;;;;;;;;;;;;;;
2023/02/05 01:21:35;;;;;;;18.90;7.20;;;;;;;-2.42;74.52;102333.17;127432;1301;115291;-63
2023/02/05 01:25:47;;;;;;;16.70;6.30;;;;;;;-2.46;74.05;102330.42;126539;1309;115030;-63
2023/02/05 01:29:38;;;;;;;12.50;6.10;;;;;;;-2.49;73.89;102332.59;126824;1304;114836;-64
2023/02/05 01:33:07;;;;;;;;;;;;;;;;;;;;;
2023/02/05 01:36:57;;;;;;;17.30;6.50;;;;;;;-2.54;74.48;102336.92;127232;1304;128887;-64
2023/02/05 01:40:17;;;;;;;;;;;;;;;;;;;;;
2023/02/05 01:43:43;;;;;;;19.90;6.20;;;;;;;-2.54;74.64;102340.98;126661;1286;114892;-64
2023/02/05 01:46:49;;;;;;;16.00;5.40;;;;;;;-2.48;74.54;102337.33;127250;1297;114858;-64
2023/02/05 01:49:55;;;;;;;17.50;6.50;;;;;;;-2.44;74.61;102333.79;128049;1280;114916;-64
2023/02/05 01:53:11;;;;;;;13.40;6.40;;;;;;;-2.41;74.64;102335.67;127941;1280;129720;-64
2023/02/05 01:56:25;;;;;;;11.70;6.00;;;;;;;-2.37;74.60;102337.38;127717;1301;115229;-64
2023/02/05 02:00:21;;;;;;;;;;;;;;;;;;;;;
2023/02/05 02:04:08;;;;;;;18.50;7.40;;;;;;;-2.29;74.87;102334.36;128174;1287;114833;-64
2023/02/05 02:07:54;;;;;;;;;;;;;;;;;;;;;
2023/02/05 02:11:35;;;;;;;14.40;5.70;;;;;;;-2.23;74.31;102329.66;126610;1286;129737;-64
2023/02/05 02:15:04;;;;;;;12.40;5.40;;;;;;;-2.22;74.55;102328.80;126237;1306;115292;-64
2023/02/05 02:18:29;;;;;;;10.50;5.30;;;;;;;-2.23;74.46;102330.02;126683;1289;114901;-63
2023/02/05 02:22:13;;;;;;;13.00;6.60;;;;;;;-2.24;74.24;102333.80;126913;1306;114859;-63
2023/02/05 02:25:57;;;;;;;13.30;6.50;;;;;;;-2.27;74.57;102331.98;127066;1306;115056;-64
2023/02/05 02:29:57;;;;;;;11.20;5.50;;;;;;;-2.32;74.17;102330.92;127082;1283;129246;-62
2023/02/05 02:33:31;;;;;;;14.30;5.60;;;;;;;-2.38;74.19;102331.73;126952;1300;115345;-64
2023/02/05 02:37:24;;;;;;;12.70;5.70;;;;;;;-2.47;74.65;102333.00;126510;1293;114958;-65
2023/02/05 02:41:02;;;;;;;;;;;;;;;;;;;;;
2023/02/05 02:44:33;;;;;;;15.00;5.40;;;;;;;-2.66;74.49;102331.60;127812;1295;115056;-63
2023/02/05 02:47:47;;;;;;;11.30;5.90;;;;;;;-2.73;74.53;102330.27;128616;1289;129118;-63
2023/02/05 02:50:55;;;;;;;11.90;5.80;;;;;;;-2.81;74.58;102328.92;128717;1283;116296;-63
2023/02/05 02:54:03;;;;;;;14.20;7.30;;;;;;;-2.87;74.43;102328.15;129349;1264;114981;-62
2023/02/05 02:57:55;;;;;;;;;;;;;;;;;;;;;
2023/02/05 03:01:32;;;;;;;13.60;6.30;;;;;;;-3.01;74.76;102328.52;129382;1283;114989;-62
2023/02/05 03:04:53;;;;;;;;;;;;;;;;;;;;;
2023/02/05 03:08:15;;;;;;;13.60;6.40;;;;;;;-3.11;75.08;102326.71;129141;1284;115352;-62
2023/02/05 03:11:37;;;;;;;15.20;6.90;;;;;;;-3.14;75.16;102331.48;129127;1284;114909;-63
2023/02/05 03:15:15;;;;;;;12.70;6.50;;;;;;;-3.18;75.20;102331.88;129125;1276;114885;-62
2023/02/05 03:18:29;;;;;;;13.60;7.00;;;;;;;-3.21;75.33;102331.06;129081;1270;114996;-62
2023/02/05 03:21:57;;;;;;;13.00;6.80;;;;;;;-3.24;75.25;102333.21;128987;1287;126575;-62
2023/02/05 03:25:07;;;;;;;19.90;7.20;;;;;;;-3.26;75.37;102337.67;128911;1289;115015;-63
2023/02/05 03:32:12;;;;;;;12.70;6.70;;;;;;;-3.29;75.43;102339.80;128756;1288;114845;-63
2023/02/05 03:35:44;;;;;;;14.80;6.80;;;;;;;-3.30;75.55;102345.16;129093;1270;114841;-63
2023/02/05 03:39:51;;;;;;;14.70;6.50;;;;;;;-3.33;75.74;102348.38;129035;1270;128934;-62
2023/02/05 03:43:49;;;;;;;14.40;7.00;;;;;;;-3.37;75.48;102350.33;128608;1279;115338;-63
2023/02/05 03:47:05;;;;;;;13.20;6.50;;;;;;;-3.41;75.62;102353.17;128835;1270;115004;-63
2023/02/05 03:50:59;;;;;;;13.80;6.70;;;;;;;-3.44;75.73;102350.40;128840;1268;114898;-63
2023/02/05 03:54:33;;;;;;;12.30;6.30;;;;;;;-3.48;75.61;102350.76;128649;1293;114847;-64
2023/02/05 03:57:59;;;;;;;12.40;6.10;;;;;;;-3.53;75.58;102348.09;128857;1288;127753;-61
2023/02/05 04:01:19;;;;;;;18.70;7.60;;;;;;;-3.60;75.76;102353.06;129106;1266;115424;-65
2023/02/05 04:05:12;;;;;;;12.90;6.40;;;;;;;-3.65;75.50;102354.22;128997;1271;114814;-62
2023/02/05 04:08:14;;;;;;;13.00;6.90;;;;;;;-3.73;75.72;102354.95;128944;1272;114827;-63
2023/02/05 04:11:27;;;;;;;13.10;6.60;;;;;;;-3.78;75.49;102359.09;128968;1267;114908;-63
2023/02/05 04:14:33;;;;;;;16.60;7.60;;;;;;;-3.85;75.93;102361.08;128874;1288;129904;-63
2023/02/05 04:18:01;;;;;;;22.10;8.00;;;;;;;-3.92;75.77;102356.94;128781;1288;115261;-62
2023/02/05 04:21:27;;;;;;;15.80;8.60;;;;;;;-4.00;75.71;102357.31;129232;1261;114833;-62
2023/02/05 04:24:46;;;;;;;19.70;10.00;;;;;;;-4.08;75.65;102362.70;129167;1268;114913;-64
2023/02/05 04:28:06;;;;;;;27.00;11.10;;;;;;;-4.16;75.46;102360.42;129168;1268;114817;-64
2023/02/05 04:31:41;;;;;;;23.00;10.90;;;;;;;-4.24;75.82;102371.94;129451;1283;128917;-64
2023/02/05 04:35:12;;;;;;;19.20;10.70;;;;;;;-4.33;75.50;102375.20;129432;1283;114914;-64
2023/02/05 04:38:51;;;;;;;25.80;11.60;;;;;;;-4.41;75.97;102379.90;129511;1259;114833;-63
2023/02/05 04:42:29;;;;;;;28.40;13.60;;;;;;;-4.50;75.80;102380.55;128772;1289;114848;-64
2023/02/05 04:46:00;;;;;;;31.50;13.60;;;;;;;-4.58;75.85;102380.02;128836;1270;114871;-63
2023/02/05 04:49:17;;;;;;;30.00;13.10;;;;;;;-4.64;76.01;102376.61;128818;1289;129067;-63
2023/02/05 04:52:39;;;;;;;32.70;13.30;;;;;;;-4.68;75.81;102383.02;128615;1289;115178;-64
2023/02/05 04:55:59;;;;;;;32.00;13.80;;;;;;;-4.73;76.74;102386.63;128765;1267;114908;-63
2023/02/05 04:59:21;;;;;;;37.40;14.20;;;;;;;-4.76;76.26;102387.36;128885;1271;114893;-63
2023/02/05 05:03:20;;;;;;;26.60;11.80;;;;;;;-4.81;76.06;102389.41;129224;1263;114968;-63
2023/02/05 05:06:21;;;;;;;;;;;;;;;;;;;;;
2023/02/05 05:09:52;;;;;;;21.50;9.60;;;;;;;-4.91;75.86;102402.52;129463;1258;115170;-63
2023/02/05 05:13:12;;;;;;;27.10;9.90;;;;;;;-4.96;76.14;102407.34;129372;1259;114761;-63
2023/02/05 05:16:44;;;;;;;21.20;10.30;;;;;;;-5.00;76.11;102406.77;129468;1267;114898;-64
2023/02/05 05:20:04;;;;;;;;;;;;;;;;;;;;;
2023/02/05 05:23:20;;;;;;;18.30;9.10;;;;;;;-5.11;76.02;102415.50;130244;1274;127918;-65
2023/02/05 05:26:46;;;;;;;;;;;;;;;;;;;;;
2023/02/05 05:30:34;;;;;;;21.00;9.50;;;;;;;-5.21;76.14;102421.09;130286;1251;114827;-63
2023/02/05 05:34:29;;;;;;;19.80;10.00;;;;;;;-5.27;76.53;102430.03;130226;1257;114741;-62
2023/02/05 05:38:08;;;;;;;15.80;8.70;;;;;;;-5.35;75.94;102431.94;129086;1268;114905;-64
2023/02/05 05:45:19;;;;;;;18.20;10.00;;;;;;;-5.44;76.40;102445.92;128697;1286;114966;-63
2023/02/05 05:48:36;;;;;;;15.40;9.40;;;;;;;-5.47;76.11;102446.83;128974;1270;114954;-63
2023/02/05 05:51:51;;;;;;;15.30;8.10;;;;;;;-5.51;76.41;102448.20;129065;1270;114895;-63
2023/02/05 05:55:03;;;;;;;19.10;9.40;;;;;;;-5.54;76.42;102453.56;128926;1270;114895;-64
2023/02/05 05:58:13;;;;;;;17.40;8.90;;;;;;;-5.58;76.55;102446.59;128861;1288;128866;-65
2023/02/05 06:01:30;;;;;;;18.30;9.50;;;;;;;-5.63;76.30;102446.02;128968;1280;114900;-63
2023/02/05 06:05:03;;;;;;;15.80;10.40;;;;;;;-5.67;76.06;102447.55;128780;1268;114844;-62
2023/02/05 06:08:37;;;;;;;;;;;;;;;;;;;;;
2023/02/05 06:12:11;;;;;;;16.60;10.00;;;;;;;-5.75;76.26;102449.21;129081;1281;114851;-62
2023/02/05 06:15:28;;;;;;;18.20;11.50;;;;;;;-5.79;76.37;102455.44;129277;1265;129068;-63
2023/02/05 06:18:43;;;;;;;17.50;10.80;;;;;;;-5.84;76.29;102453.63;129138;1269;115224;-62
2023/02/05 06:22:08;;;;;;;15.90;9.50;;;;;;;-5.87;76.50;102460.05;129675;1253;114922;-64
2023/02/05 06:25:38;;;;;;;;;;;;;;;;;;;;;
2023/02/05 06:29:01;;;;;;;22.00;11.20;;;;;;;-5.94;76.49;102476.76;129637;1274;114908;-63
2023/02/05 06:32:21;;;;;;;20.80;11.80;;;;;;;-5.98;76.58;102476.06;129581;1257;128312;-62
2023/02/05 06:35:49;;;;;;;22.30;12.30;;;;;;;-6.00;76.58;102480.50;129509;1275;115129;-62
2023/02/05 06:39:08;;;;;;;23.10;13.10;;;;;;;-6.02;76.55;102481.77;129665;1257;114837;-62
2023/02/05 06:42:34;;;;;;;22.60;11.80;;;;;;;-6.02;76.45;102483.12;129758;1276;115133;-62
2023/02/05 06:45:54;;;;;;;21.10;12.20;;;;;;;-6.03;76.67;102486.19;130128;1257;114728;-63
2023/02/05 06:49:24;;;;;;;23.10;12.30;;;;;;;-6.03;76.78;102489.38;130200;1253;128817;-62
2023/02/05 06:52:39;;;;;;;24.20;12.00;;;;;;;-6.02;76.64;102486.30;130150;1256;114716;-62
2023/02/05 06:55:56;;;;;;;21.90;13.20;;;;;;;-6.00;76.90;102490.20;129888;1257;114903;-62
2023/02/05 06:59:30;;;;;;;23.00;12.40;;;;;;;-5.98;76.83;102494.65;129778;1254;114800;-64
2023/02/05 07:02:55;;;;;;;29.00;15.70;;;;;;;-5.94;77.32;102498.67;130093;1257;114805;-62
2023/02/05 07:06:29;;;;;;;;;;;;;;;;;;;;;
2023/02/05 07:09:49;;;;;;;31.80;16.70;;;;;;;-5.85;77.52;102516.22;129708;1276;114936;-62
2023/02/05 07:13:09;;;;;;;35.80;17.50;;;;;;;-5.78;77.70;102527.86;129890;1257;114919;-63
2023/02/05 07:16:52;;;;;;;35.50;16.70;;;;;;;-5.72;77.56;102528.17;130182;1256;114780;-63
2023/02/05 07:20:48;;;;;;;;;;;;;;;;;;;;;
2023/02/05 07:24:20;;;;;;;36.70;16.20;;;;;;;-5.54;78.19;102547.07;129446;1283;129033;-62
2023/02/05 07:28:23;;;;;;;31.50;14.80;;;;;;;-5.45;78.41;102552.79;129083;1266;115091;-62
2023/02/05 07:32:23;;;;;;;32.20;16.20;;;;;;;-5.31;78.17;102551.57;128412;1277;114810;-62
2023/02/05 07:36:18;;;;;;;;;;;;;;;;;;;;;
2023/02/05 07:40:15;;;;;;;42.00;16.60;;;;;;;-4.97;79.34;102540.08;126555;1310;114818;-63
2023/02/05 07:44:08;;;;;;;35.30;17.50;;;;;;;-4.75;79.40;102537.67;125934;1316;129754;-62
2023/02/05 07:47:49;;;;;;;39.80;19.30;;;;;;;-4.49;79.52;102535.27;126001;1293;116040;-62
2023/02/05 07:51:51;;;;;;;35.60;18.70;;;;;;;-4.23;79.75;102541.58;125981;1297;115388;-61
2023/02/05 07:55:42;;;;;;;34.60;16.70;;;;;;;-3.93;79.76;102546.81;125347;1305;115091;-62
2023/02/05 07:59:26;;;;;;;;;;;;;;;;;;;;;
2023/02/05 08:03:22;;;;;;;35.40;17.60;;;;;;;-3.36;79.53;102550.91;124876;1301;129857;-61
2023/02/05 08:07:05;;;;;;;33.50;16.30;;;;;;;-3.08;79.04;102548.81;125164;1299;115232;-63
2023/02/05 08:10:47;;;;;;;41.20;17.10;;;;;;;-2.83;79.20;102548.13;125904;1291;114943;-62
2023/02/05 08:14:21;;;;;;;61.90;27.30;;;;;;;-2.57;79.29;102545.19;125531;1303;114953;-62
2023/02/05 08:18:05;;;;;;;22.90;13.80;;;;;;;-2.33;79.22;102539.83;126156;1291;115030;-62
2023/02/05 08:21:39;;;;;;;20.10;10.20;;;;;;;-2.07;78.88;102546.25;126551;1303;129698;-62
2023/02/05 08:25:19;;;;;;;19.60;9.90;;;;;;;-1.87;78.44;102544.73;126291;1312;115212;-62
2023/02/05 08:29:10;;;;;;;;;;;;;;;;;;;;;
2023/02/05 08:32:57;;;;;;;24.70;12.40;;;;;;;-1.47;77.79;102544.98;125979;1291;114969;-62
2023/02/05 08:36:40;;;;;;;24.80;12.60;;;;;;;-1.26;77.88;102539.09;126038;1300;114818;-61
2023/02/05 08:40:28;;;;;;;;;;;;;;;;;;;;;
2023/02/05 08:44:31;;;;;;;20.90;11.40;;;;;;;-1.02;77.00;102544.83;125923;1302;115142;-62
2023/02/05 08:48:10;;;;;;;;;;;;;;;;;;;;;
2023/02/05 08:52:08;;;;;;;22.10;11.20;;;;;;;-0.92;76.47;102555.70;125158;1319;114982;-63
2023/02/05 08:56:09;;;;;;;;;;;;;;;;;;;;;
2023/02/05 09:04:24;;;;;;;13.10;9.00;;;;;;;-1.08;75.37;102545.31;126324;1295;636924;-64
2023/02/05 09:08:21;;;;;;;;;;;;;;;;;;;;;
2023/02/05 09:12:16;;;;;;;15.60;8.90;;;;;;;-1.05;74.82;102544.73;127581;1284;115273;-62
2023/02/05 09:16:10;;;;;;;16.00;9.40;;;;;;;-1.01;74.85;102535.92;127447;1288;114923;-63
2023/02/05 09:20:03;;;;;;;;;;;;;;;;;;;;;
2023/02/05 09:24:04;;;;;;;;;;;;;;;;;;;;;
2023/02/05 09:28:09;;;;;;;14.20;8.70;;;;;;;-0.75;74.62;102522.77;126124;1296;114957;-63
2023/02/05 09:32:09;;;;;;;21.00;10.10;;;;;;;-0.64;74.15;102523.81;125517;1305;129865;-63
2023/02/05 09:36:12;;;;;;;;;;;;;;;;;;;;;
2023/02/05 09:39:43;;;;;;;;;;;;;;;;;;;;;
2023/02/05 09:43:49;;;;;;;11.40;6.30;;;;;;;-0.44;71.84;102517.80;124406;1332;114968;-63
2023/02/05 09:48:11;;;;;;;9.60;6.50;;;;;;;-0.57;71.75;102514.22;124687;1310;115249;-63
2023/02/05 09:56:18;;;;;;;9.10;6.70;;;;;;;-0.51;72.14;102520.89;125414;1301;115292;-63
2023/02/05 10:00:08;;;;;;;;;;;;;;;;;;;;;
2023/02/05 10:04:26;;;;;;;12.80;7.70;;;;;;;-0.30;71.20;102514.52;125978;1311;114954;-61
2023/02/05 10:08:27;;;;;;;;;;;;;;;;;;;;;
2023/02/05 10:17:07;;;;;;;14.90;7.30;;;;;;;-0.11;71.42;102502.66;128529;1278;115205;-64
2023/02/05 10:21:08;;;;;;;23.50;8.60;;;;;;;-0.08;71.25;102497.83;128489;1276;114729;-63
2023/02/05 10:25:15;;;;;;;13.30;5.40;;;;;;;-0.05;69.99;102494.39;128588;1278;114878;-65
2023/02/05 10:29:48;;;;;;;18.10;8.40;;;;;;;-0.03;69.88;102489.90;128479;1291;114794;-63
2023/02/05 10:33:54;;;;;;;;;;;;;;;;;;;;;
2023/02/05 10:37:57;;;;;;;;;;;;;;;;;;;;;
2023/02/05 10:42:16;;;;;;;14.00;7.00;;;;;;;-0.02;69.17;102490.81;127877;1281;114950;-62
2023/02/05 10:46:14;;;;;;;;;;;;;;;;;;;;;
2023/02/05 10:50:11;;;;;;;;;;;;;;;;;;;;;
2023/02/05 10:54:13;;;;;;;;;;;;;;;;;;;;;
2023/02/05 11:02:27;;;;;;;;;;;;;;;;;;;;;
2023/02/05 11:10:14;;;;;;;;;;;;;;;;;;;;;
2023/02/05 11:14:21;;;;;;;7.00;4.30;;;;;;;0.80;68.27;102465.63;127841;1283;114871;-63
2023/02/05 11:18:25;;;;;;;5.30;3.20;;;;;;;0.91;68.48;102461.88;122400;1298;114928;-61
2023/02/05 11:22:26;;;;;;;5.90;3.70;;;;;;;1.02;68.28;102467.77;124898;1310;114947;-62
2023/02/05 11:30:59;;;;;;;10.00;5.90;;;;;;;1.24;67.59;102470.06;126381;1294;636473;-63
2023/02/05 11:34:48;;;;;;;;;;;;;;;;;;;;;
2023/02/05 11:39:04;;;;;;;5.10;3.40;;;;;;;1.29;67.02;102469.84;128588;1279;114776;-61
2023/02/05 11:43:09;;;;;;;7.90;5.20;;;;;;;1.32;66.65;102467.98;124501;1288;5594147;-63
2023/02/05 11:46:59;;;;;;;5.40;3.50;;;;;;;1.36;66.80;102463.50;127829;1284;114927;-63
2023/02/05 11:50:48;;;;;;;;;;;;;;;;;;;;;
2023/02/05 11:54:51;;;;;;;;;;;;;;;;;;;;;
2023/02/05 11:58:56;;;;;;;;;;;;;;;;;;;;;
2023/02/05 12:03:03;;;;;;;;;;;;;;;;;;;;;
2023/02/05 12:07:08;;;;;;;7.20;4.30;;;;;;;1.47;65.43;102458.65;127849;1283;114698;-62
2023/02/05 12:11:10;;;;;;;7.00;4.50;;;;;;;1.51;65.52;102455.20;127083;1305;114884;-60
2023/02/05 12:15:19;;;;;;;;;;;;;;;;;;;;;
2023/02/05 12:19:43;;;;;;;;;;;;;;;;;;;;;
2023/02/05 12:24:29;;;;;;;7.70;4.50;;;;;;;1.69;65.59;102458.77;127606;1301;115269;-62
2023/02/05 12:28:41;;;;;;;;;;;;;;;;;;;;;
2023/02/05 12:33:09;;;;;;;17.90;9.40;;;;;;;1.66;64.22;102447.45;127779;1301;114999;-64
2023/02/05 12:37:09;;;;;;;;;;;;;;;;;;;;;
2023/02/05 12:40:40;;;;;;;8.70;5.10;;;;;;;1.54;64.66;102438.17;128673;1274;127948;-62
2023/02/05 12:44:07;;;;;;;8.80;4.70;;;;;;;1.56;65.06;102438.92;128943;1281;116526;-63
2023/02/05 12:47:20;;;;;;;9.40;4.90;;;;;;;1.55;64.47;102434.34;129136;1283;114992;-64
2023/02/05 12:51:29;;;;;;;8.40;4.90;;;;;;;1.55;64.34;102431.51;129383;1261;115025;-62
2023/02/05 12:55:33;;;;;;;;;;;;;;;;;;;;;
2023/02/05 12:59:37;;;;;;;;;;;;;;;;;;;;;
2023/02/05 13:04:00;;;;;;;7.10;3.80;;;;;;;1.51;64.51;102438.82;128721;1289;115483;-63
2023/02/05 13:08:14;;;;;;;5.50;3.50;;;;;;;1.46;63.50;102438.71;129537;1267;115226;-64
2023/02/05 13:12:09;;;;;;;7.40;4.10;;;;;;;1.41;63.53;102434.39;129242;1270;114805;-64
2023/02/05 13:16:13;;;;;;;;;;;;;;;;;;;;;
2023/02/05 13:28:38;;;;;;;8.90;4.50;;;;;;;1.32;63.81;102435.57;128154;1288;128841;-63
2023/02/05 13:32:16;;;;;;;;;;;;;;;;;;;;;
2023/02/05 13:36:27;;;;;;;11.60;5.00;;;;;;;1.37;63.60;102430.75;124549;1316;114925;-62
2023/02/05 13:45:09;;;;;;;;;;;;;;;;;;;;;
2023/02/05 13:49:16;;;;;;;11.60;7.00;;;;;;;1.25;62.98;102426.23;128858;1282;127558;-61
2023/02/05 13:53:18;;;;;;;10.40;5.20;;;;;;;1.15;62.66;102427.09;128646;1286;115346;-62
2023/02/05 13:57:38;;;;;;;18.00;9.50;;;;;;;1.12;63.20;102424.72;124650;1278;5439161;-62
2023/02/05 14:01:42;;;;;;;16.50;9.30;;;;;;;1.12;63.22;102422.43;128371;1275;114941;-62
2023/02/05 14:05:46;;;;;;;11.90;6.80;;;;;;;1.13;63.52;102421.05;128124;1288;114991;-63
2023/02/05 14:09:52;;;;;;;12.20;6.60;;;;;;;1.14;63.05;102427.06;126754;1293;128879;-61
2023/02/05 14:13:52;;;;;;;12.50;4.90;;;;;;;1.09;62.89;102428.52;126264;1311;115236;-62
2023/02/05 14:18:02;;;;;;;;;;;;;;;;;;;;;
2023/02/05 14:22:40;;;;;;;;;;;;;;;;;;;;;
2023/02/05 14:27:02;;;;;;;10.80;5.90;;;;;;;0.92;63.20;102430.56;126284;1312;115397;-63
2023/02/05 14:31:10;;;;;;;11.40;5.50;;;;;;;0.88;63.76;102431.88;126333;1296;128891;-63
2023/02/05 14:35:07;;;;;;;;;;;;;;;;;;;;;
2023/02/05 14:39:16;;;;;;;10.40;5.60;;;;;;;0.83;63.31;102427.52;126353;1290;115049;-62
2023/02/05 14:43:10;;;;;;;;;;;;;;;;;;;;;
2023/02/05 14:47:21;;;;;;;9.70;5.20;;;;;;;0.77;63.17;102428.60;125034;1320;114970;-62
2023/02/05 14:51:14;;;;;;;;;;;;;;;;;;;;;
2023/02/05 14:55:10;;;;;;;9.00;4.80;;;;;;;0.69;63.09;102423.84;125284;1301;115503;-62
2023/02/05 14:59:04;;;;;;;;;;;;;;;;;;;;;
2023/02/05 15:03:05;;;;;;;12.60;7.40;;;;;;;0.64;62.79;102439.54;125082;1308;115240;-62
2023/02/05 15:11:36;;;;;;;;;;;;;;;;;;;;;
2023/02/05 15:15:41;;;;;;;16.40;8.00;;;;;;;0.52;62.87;102451.88;127546;1284;128872;-63
2023/02/05 15:19:36;;;;;;;;;;;;;;;;;;;;;
2023/02/05 15:23:29;;;;;;;19.10;10.20;;;;;;;0.37;62.93;102447.45;121238;1305;5508163;-62
2023/02/05 15:27:37;;;;;;;19.50;8.80;;;;;;;0.28;63.04;102449.30;125682;1302;114907;-63
2023/02/05 15:31:44;;;;;;;16.20;8.60;;;;;;;0.12;62.95;102454.32;125517;1299;116523;-62
2023/02/05 15:35:17;;;;;;;19.10;9.50;;;;;;;-0.06;63.27;102456.61;125049;1307;129971;-62
2023/02/05 15:39:18;;;;;;;15.10;8.00;;;;;;;-0.22;63.41;102465.61;125050;1306;114962;-63
2023/02/05 15:43:22;;;;;;;;;;;;;;;;;;;;;
2023/02/05 15:47:13;;;;;;;18.00;8.00;;;;;;;-0.64;63.36;102460.98;123722;1316;114976;-64
2023/02/05 15:50:53;;;;;;;;;;;;;;;;;;;;;
2023/02/05 15:54:48;;;;;;;113.10;37.40;;;;;;;-1.01;63.51;102458.40;123933;1316;130051;-63
2023/02/05 15:58:39;;;;;;;61.90;24.50;;;;;;;-1.20;63.40;102464.26;124208;1312;116624;-63
2023/02/05 16:02:47;;;;;;;81.40;45.00;;;;;;;-1.40;63.65;102471.66;124988;1323;114876;-63
2023/02/05 16:06:39;;;;;;;71.50;42.30;;;;;;;-1.59;63.59;102468.54;125339;1323;114900;-62
2023/02/05 16:10:25;;;;;;;;;;;;;;;;;;;;;
2023/02/05 16:14:28;;;;;;;67.30;29.90;;;;;;;-1.91;64.08;102479.29;125451;1320;127884;-63
2023/02/05 16:18:27;;;;;;;;;;;;;;;;;;;;;
2023/02/05 16:22:29;;;;;;;63.00;23.70;;;;;;;-2.24;64.66;102481.73;125512;1320;114984;-62
2023/02/05 16:26:34;;;;;;;;;;;;;;;;;;;;;
2023/02/05 16:30:35;;;;;;;;;;;;;;;;;;;;;
2023/02/05 16:34:46;;;;;;;45.80;20.80;;;;;;;-2.64;65.36;102488.74;126198;1298;129842;-64
2023/02/05 16:38:41;;;;;;;50.00;20.40;;;;;;;-2.75;65.52;102493.55;125914;1295;114903;-63
2023/02/05 16:42:45;;;;;;;43.10;17.90;;;;;;;-2.85;65.57;102492.79;125310;1319;115091;-65
2023/02/05 16:46:51;;;;;;;;;;;;;;;;;;;;;
2023/02/05 16:50:53;;;;;;;36.20;16.90;;;;;;;-3.05;66.35;102499.99;125480;1299;116338;-62
2023/02/05 16:54:54;;;;;;;53.30;19.50;;;;;;;-3.17;66.01;102492.00;125582;1293;128695;-63
2023/02/05 16:58:26;;;;;;;48.90;21.70;;;;;;;-3.25;66.48;102500.38;125398;1312;114907;-64
2023/02/05 17:02:21;;;;;;;;;;;;;;;;;;;;;
2023/02/05 17:06:22;;;;;;;45.10;18.90;;;;;;;-3.40;66.74;102502.71;125581;1311;114795;-63
2023/02/05 17:10:36;;;;;;;100.90;45.10;;;;;;;-3.49;67.09;102500.58;125489;1318;114769;-64
2023/02/05 17:14:16;;;;;;;;;;;;;;;;;;;;;
2023/02/05 17:18:18;;;;;;;82.40;36.20;;;;;;;-3.66;67.53;102513.96;125401;1305;116472;-64
2023/02/05 17:22:30;;;;;;;83.70;36.20;;;;;;;-3.74;68.06;102514.69;125348;1315;115780;-63
2023/02/05 17:26:33;;;;;;;103.50;42.90;;;;;;;-3.82;67.42;102512.73;125328;1324;114916;-63
2023/02/05 17:30:18;;;;;;;112.60;48.60;;;;;;;-3.90;67.99;102508.54;124532;1327;115010;-63
2023/02/05 17:34:20;;;;;;;126.50;53.90;;;;;;;-3.97;67.92;102507.19;124764;1321;130090;-64
2023/02/05 17:38:14;;;;;;;120.80;53.40;;;;;;;-4.04;68.53;102505.96;123946;1334;116647;-62
2023/02/05 17:45:53;;;;;;;;;;;;;;;;;;;;;
2023/02/05 17:49:57;;;;;;;126.60;57.50;;;;;;;-4.20;68.78;102498.83;126335;1294;636416;-63
2023/02/05 17:53:47;;;;;;;147.90;67.20;;;;;;;-4.27;68.55;102511.23;128735;1269;127966;-62
2023/02/05 17:57:19;;;;;;;;;;;;;;;;;;;;;
2023/02/05 18:01:10;;;;;;;;;;;;;;;;;;;;;
2023/02/05 18:05:09;;;;;;;154.70;66.10;;;;;;;-4.43;69.35;102515.89;123810;1302;114872;-63
2023/02/05 18:08:48;;;;;;;240.50;98.00;;;;;;;-4.46;69.54;102510.99;126667;1290;115311;-64
2023/02/05 18:12:17;;;;;;;172.00;73.10;;;;;;;-4.49;69.58;102519.08;126503;1308;115385;-64
2023/02/05 18:16:02;;;;;;;;;;;;;;;;;;;;;
2023/02/05 18:19:36;;;;;;;162.60;74.70;;;;;;;-4.55;69.54;102512.29;127112;1304;115273;-64
2023/02/05 18:23:11;;;;;;;287.20;117.50;;;;;;;-4.59;69.55;102513.52;127369;1287;114908;-64
2023/02/05 18:26:50;;;;;;;;;;;;;;;;;;;;;
2023/02/05 18:30:44;;;;;;;;;;;;;;;;;;;;;
2023/02/05 18:34:36;;;;;;;300.70;125.30;;;;;;;-4.67;70.50;102496.92;126028;1292;129873;-64
2023/02/05 18:38:20;;;;;;;328.00;138.30;;;;;;;-4.69;70.39;102490.52;126210;1290;116598;-64
2023/02/05 18:42:00;;;;;;;335.40;145.60;;;;;;;-4.72;70.57;102497.23;126659;1301;114902;-62
2023/02/05 18:45:38;;;;;;;302.00;136.50;;;;;;;-4.73;70.98;102505.38;128127;1274;114846;-64
2023/02/05 18:49:34;;;;;;;;;;;;;;;;;;;;;
2023/02/05 18:53:31;;;;;;;250.30;105.70;;;;;;;-4.75;71.15;102504.90;126821;1305;128881;-64
2023/02/05 18:57:00;;;;;;;;;;;;;;;;;;;;;
2023/02/05 19:00:56;;;;;;;;;;;;;;;;;;;;;
2023/02/05 19:04:43;;;;;;;175.90;78.80;;;;;;;-4.75;71.83;102520.24;126173;1305;114847;-65
2023/02/05 19:08:36;;;;;;;;;;;;;;;;;;;;;
2023/02/05 19:12:30;;;;;;;187.60;87.50;;;;;;;-4.72;72.13;102505.58;126164;1287;129870;-62
2023/02/05 19:16:13;;;;;;;203.80;83.50;;;;;;;-4.68;71.96;102505.92;126270;1309;114990;-62
2023/02/05 19:20:16;;;;;;;211.00;91.20;;;;;;;-4.65;72.12;102513.41;125786;1299;115162;-63
2023/02/05 19:28:16;;;;;;;;;;;;;;;;;;;;;
2023/02/05 19:35:57;;;;;;;196.50;92.00;;;;;;;-4.47;72.49;102531.04;126602;1296;115298;-66
2023/02/05 19:39:21;;;;;;;305.40;119.80;;;;;;;-4.43;72.74;102528.78;126090;1298;114873;-67
2023/02/05 19:42:51;;;;;;;328.80;132.50;;;;;;;-4.38;73.12;102531.61;122258;1314;114964;-63
2023/02/05 19:45:55;;;;;;;270.00;107.10;;;;;;;-4.32;72.86;102542.53;125547;1298;115033;-66
2023/02/05 19:49:08;;;;;;;193.90;80.70;;;;;;;-4.29;73.02;102547.08;125604;1298;115032;-66
2023/02/05 19:53:09;;;;;;;207.40;89.20;;;;;;;-4.25;73.57;102560.69;125454;1302;129224;-66
2023/02/05 19:56:56;;;;;;;;;;;;;;;;;;;;;
2023/02/05 20:00:50;;;;;;;;;;;;;;;;;;;;;
2023/02/05 20:04:36;;;;;;;;;;;;;;;;;;;;;
2023/02/05 20:08:33;;;;;;;;;;;;;;;;;;;;;
2023/02/05 20:12:18;;;;;;;127.90;52.90;;;;;;;-4.10;73.22;102591.55;123213;1328;129785;-66
2023/02/05 20:16:12;;;;;;;;;;;;;;;;;;;;;
2023/02/05 20:24:28;;;;;;;108.40;46.90;;;;;;;-4.04;73.40;102600.40;126311;1300;636159;-64
2023/02/05 20:28:22;;;;;;;;;;;;;;;;;;;;;
2023/02/05 20:32:25;;;;;;;;;;;;;;;;;;;;;
2023/02/05 20:36:02;;;;;;;;;;;;;;;;;;;;;
2023/02/05 20:39:47;;;;;;;126.60;55.20;;;;;;;-4.03;73.16;102604.10;124890;1323;114891;-63
2023/02/05 20:43:13;;;;;;;;;;;;;;;;;;;;;
2023/02/05 20:46:23;;;;;;;133.10;58.60;;;;;;;-4.04;73.11;102621.15;124835;1313;129554;-62
2023/02/05 20:49:35;;;;;;;125.50;55.40;;;;;;;-4.05;72.69;102623.20;125093;1324;116536;-64
2023/02/05 20:52:36;;;;;;;146.10;63.30;;;;;;;-4.07;73.01;102624.37;125048;1307;114988;-66
2023/02/05 20:55:37;;;;;;;135.80;60.20;;;;;;;-4.07;73.33;102629.39;125088;1324;114968;-63
2023/02/05 20:58:42;;;;;;;152.30;62.30;;;;;;;-4.08;73.17;102627.61;125002;1308;114955;-63